createdAt,value
2023-09-17T00:00:42.818Z,66.63
2023-09-17T00:03:31.317Z,63.81
2023-09-17T00:06:00.862Z,63.13
2023-09-17T00:08:29.362Z,62.45
2023-09-17T00:10:57.308Z,61.89
2023-09-17T00:13:26.262Z,61.81
2023-09-17T00:15:54.572Z,60.91
2023-09-17T00:18:22.724Z,60.12
2023-09-17T00:20:50.580Z,59.33
2023-09-17T00:23:18.438Z,59.52
2023-09-17T00:25:46.585Z,60.92
2023-09-17T00:28:15.066Z,65.52
2023-09-17T00:30:43.533Z,66.24
2023-09-17T00:33:13.348Z,64.63
2023-09-17T00:35:41.315Z,63.11
2023-09-17T00:38:10.743Z,61.91
2023-09-17T00:40:40.826Z,60.66
2023-09-17T00:43:09.928Z,60.66
2023-09-17T00:45:39.868Z,60.01
2023-09-17T00:48:09.230Z,58.36
2023-09-17T00:50:40.411Z,58.38
2023-09-17T00:53:09.710Z,62.69
2023-09-17T00:55:38.985Z,65.88
2023-09-17T00:58:08.166Z,64.28
2023-09-17T01:00:39.819Z,62.81
2023-09-17T01:03:08.630Z,61.80
2023-09-17T01:05:44.457Z,59.92
2023-09-17T01:08:13.520Z,58.82
2023-09-17T01:10:42.106Z,58.99
2023-09-17T01:13:11.302Z,63.31
2023-09-17T01:15:39.329Z,66.03
2023-09-17T01:18:11.963Z,65.59
2023-09-17T01:21:03.920Z,62.76
2023-09-17T01:23:47.996Z,60.82
2023-09-17T01:26:28.003Z,60.66
2023-09-17T01:28:57.431Z,60.37
2023-09-17T01:31:28.678Z,58.47
2023-09-17T01:33:57.136Z,57.52
2023-09-17T01:36:36.064Z,61.42
2023-09-17T01:39:15.924Z,66.49
2023-09-17T01:41:46.377Z,64.68
2023-09-17T01:44:15.811Z,62.92
2023-09-17T01:46:46.967Z,62.14
2023-09-17T01:49:16.118Z,61.89
2023-09-17T01:51:45.845Z,60.99
2023-09-17T01:54:15.623Z,59.59
2023-09-17T01:56:44.563Z,57.01
2023-09-17T01:59:13.617Z,58.21
2023-09-17T02:01:43.790Z,59.48
2023-09-17T02:04:12.391Z,67.53
2023-09-17T02:06:40.400Z,68.44
2023-09-17T02:09:09.997Z,65.76
2023-09-17T02:11:37.921Z,62.16
2023-09-17T02:14:09.209Z,59.80
2023-09-17T02:16:38.510Z,55.28
2023-09-17T02:19:07.937Z,56.72
2023-09-17T02:21:35.885Z,59.83
2023-09-17T02:24:07.263Z,63.51
2023-09-17T02:26:35.212Z,66.73
2023-09-17T02:29:07.963Z,64.16
2023-09-17T02:31:36.115Z,62.23
2023-09-17T02:34:05.278Z,59.78
2023-09-17T02:36:35.374Z,56.28
2023-09-17T02:39:04.102Z,57.04
2023-09-17T02:41:34.717Z,60.20
2023-09-17T02:44:04.566Z,67.85
2023-09-17T02:46:32.768Z,66.61
2023-09-17T02:49:01.322Z,62.11
2023-09-17T02:51:29.867Z,61.06
2023-09-17T02:53:58.029Z,58.75
2023-09-17T02:56:26.380Z,55.91
2023-09-17T02:58:54.266Z,58.42
2023-09-17T03:01:25.715Z,65.11
2023-09-17T03:03:54.396Z,66.63
2023-09-17T03:06:22.977Z,63.24
2023-09-17T03:08:50.949Z,57.67
2023-09-17T03:11:19.125Z,58.29
2023-09-17T03:13:48.531Z,61.55
2023-09-17T03:16:17.395Z,66.17
2023-09-17T03:18:46.335Z,64.13
2023-09-17T03:21:14.759Z,60.62
2023-09-17T03:23:42.629Z,58.41
2023-09-17T03:26:11.719Z,61.89
2023-09-17T03:28:39.713Z,64.43
2023-09-17T03:31:07.690Z,63.64
2023-09-17T03:33:37.043Z,61.97
2023-09-17T03:36:05.858Z,60.83
2023-09-17T03:38:34.577Z,60.84
2023-09-17T03:41:02.547Z,60.95
2023-09-17T03:43:32.038Z,59.11
2023-09-17T03:46:07.909Z,57.18
2023-09-17T03:48:35.892Z,63.95
2023-09-17T03:51:05.865Z,65.50
2023-09-17T03:53:34.916Z,63.91
2023-09-17T03:56:03.066Z,61.53
2023-09-17T03:58:32.445Z,59.86
2023-09-17T04:01:01.424Z,58.88
2023-09-17T04:03:33.522Z,64.22
2023-09-17T04:06:03.693Z,65.43
2023-09-17T04:08:31.882Z,63.23
2023-09-17T04:11:00.980Z,61.47
2023-09-17T04:13:30.814Z,60.98
2023-09-17T04:15:58.820Z,59.67
2023-09-17T04:18:28.098Z,57.71
2023-09-17T04:20:56.657Z,59.68
2023-09-17T04:23:26.394Z,65.01
2023-09-17T04:25:57.346Z,64.78
2023-09-17T04:28:26.336Z,61.54
2023-09-17T04:30:54.307Z,60.88
2023-09-17T04:33:22.858Z,61.17
2023-09-17T04:36:00.092Z,61.13
2023-09-17T04:38:28.768Z,61.16
2023-09-17T04:40:58.207Z,61.22
2023-09-17T04:43:28.057Z,60.75
2023-09-17T04:45:56.276Z,61.08
2023-09-17T04:48:24.458Z,60.86
2023-09-17T04:50:52.615Z,61.09
2023-09-17T04:53:20.787Z,61.59
2023-09-17T04:55:49.037Z,60.77
2023-09-17T04:58:17.717Z,59.14
2023-09-17T05:00:46.651Z,60.98
2023-09-17T05:03:14.733Z,64.68
2023-09-17T05:05:43.462Z,63.30
2023-09-17T05:08:11.318Z,62.37
2023-09-17T05:10:39.386Z,60.35
2023-09-17T05:13:07.497Z,61.61
2023-09-17T05:15:35.839Z,63.97
2023-09-17T05:18:10.404Z,63.13
2023-09-17T05:20:44.953Z,60.93
2023-09-17T05:23:12.936Z,57.67
2023-09-17T05:25:40.967Z,56.32
2023-09-17T05:28:09.694Z,59.72
2023-09-17T05:30:38.579Z,66.38
2023-09-17T05:33:07.845Z,65.39
2023-09-17T05:35:38.198Z,61.43
2023-09-17T05:38:06.817Z,59.86
2023-09-17T05:40:35.413Z,58.68
2023-09-17T05:43:03.386Z,61.12
2023-09-17T05:45:31.810Z,65.09
2023-09-17T05:47:59.997Z,65.36
2023-09-17T05:50:27.911Z,62.39
2023-09-17T05:52:58.813Z,60.80
2023-09-17T05:55:26.792Z,58.21
2023-09-17T05:57:55.238Z,58.65
2023-09-17T06:00:23.993Z,62.78
2023-09-17T06:02:52.165Z,65.73
2023-09-17T06:05:21.310Z,62.68
2023-09-17T06:07:50.873Z,61.08
2023-09-17T06:10:18.855Z,58.24
2023-09-17T06:12:46.805Z,59.44
2023-09-17T06:15:17.300Z,63.90
2023-09-17T06:17:45.504Z,64.16
2023-09-17T06:20:13.432Z,62.33
2023-09-17T06:22:42.301Z,60.47
2023-09-17T06:25:11.049Z,57.76
2023-09-17T06:27:40.089Z,56.81
2023-09-17T06:30:09.296Z,62.49
2023-09-17T06:32:38.617Z,65.24
2023-09-17T06:35:08.277Z,63.14
2023-09-17T06:37:36.512Z,60.63
2023-09-17T06:40:04.852Z,58.73
2023-09-17T06:42:33.317Z,58.63
2023-09-17T06:45:04.979Z,63.37
2023-09-17T06:47:35.047Z,64.46
2023-09-17T06:50:03.521Z,61.13
2023-09-17T06:52:31.565Z,59.44
2023-09-17T06:54:59.546Z,57.75
2023-09-17T06:57:30.482Z,60.74
2023-09-17T07:00:00.313Z,65.04
2023-09-17T07:02:28.567Z,63.24
2023-09-17T07:04:56.635Z,60.93
2023-09-17T07:07:24.964Z,60.58
2023-09-17T07:09:52.823Z,59.21
2023-09-17T07:12:21.087Z,57.82
2023-09-17T07:14:49.459Z,62.16
2023-09-17T07:17:17.995Z,64.81
2023-09-17T07:19:46.171Z,63.13
2023-09-17T07:22:16.302Z,60.90
2023-09-17T07:24:44.338Z,59.26
2023-09-17T07:27:15.261Z,58.86
2023-09-17T07:29:47.175Z,62.18
2023-09-17T07:32:15.768Z,64.53
2023-09-17T07:34:43.764Z,61.50
2023-09-17T07:37:12.553Z,59.58
2023-09-17T07:39:41.153Z,57.57
2023-09-17T07:42:09.334Z,60.39
2023-09-17T07:44:37.671Z,64.81
2023-09-17T07:47:07.538Z,63.35
2023-09-17T07:49:37.644Z,61.10
2023-09-17T07:52:07.323Z,58.59
2023-09-17T07:54:42.180Z,59.97
2023-09-17T07:57:14.516Z,62.04
2023-09-17T07:59:42.436Z,64.72
2023-09-17T08:02:10.788Z,62.49
2023-09-17T08:04:39.065Z,59.16
2023-09-17T08:07:07.235Z,58.12
2023-09-17T08:09:35.300Z,61.99
2023-09-17T08:12:04.256Z,64.51
2023-09-17T08:14:35.874Z,62.33
2023-09-17T08:17:05.538Z,59.54
2023-09-17T08:19:33.807Z,58.79
2023-09-17T08:22:02.200Z,62.31
2023-09-17T08:24:30.341Z,65.82
2023-09-17T08:26:58.474Z,63.55
2023-09-17T08:29:26.595Z,60.01
2023-09-17T08:31:55.229Z,58.27
2023-09-17T08:34:24.101Z,59.96
2023-09-17T08:36:52.065Z,63.74
2023-09-17T08:39:21.287Z,62.80
2023-09-17T08:41:51.858Z,59.37
2023-09-17T08:44:21.274Z,58.50
2023-09-17T08:46:53.929Z,61.41
2023-09-17T08:49:21.858Z,64.03
2023-09-17T08:51:56.655Z,61.26
2023-09-17T08:54:39.132Z,59.93
2023-09-17T08:57:09.746Z,58.21
2023-09-17T08:59:50.108Z,61.44
2023-09-17T09:02:28.656Z,64.03
2023-09-17T09:04:59.276Z,61.35
2023-09-17T09:07:30.217Z,57.08
2023-09-17T09:09:59.097Z,58.72
2023-09-17T09:12:27.800Z,59.92
2023-09-17T09:14:59.073Z,64.17
2023-09-17T09:17:28.954Z,61.66
2023-09-17T09:19:58.625Z,59.87
2023-09-17T09:22:26.791Z,55.78
2023-09-17T09:24:55.215Z,57.98
2023-09-17T09:27:23.153Z,60.56
2023-09-17T09:29:51.235Z,64.30
2023-09-17T09:32:20.100Z,61.95
2023-09-17T09:34:49.452Z,58.17
2023-09-17T09:37:24.493Z,57.86
2023-09-17T09:39:53.311Z,61.38
2023-09-17T09:42:24.313Z,63.73
2023-09-17T09:44:53.304Z,60.64
2023-09-17T09:47:26.454Z,59.05
2023-09-17T09:49:55.167Z,59.47
2023-09-17T09:52:25.497Z,61.44
2023-09-17T09:54:53.765Z,65.36
2023-09-17T09:57:22.492Z,60.96
2023-09-17T09:59:52.796Z,57.94
2023-09-17T10:02:23.413Z,59.59
2023-09-17T10:04:51.583Z,62.81
2023-09-17T10:07:19.754Z,62.28
2023-09-17T10:09:48.031Z,59.00
2023-09-17T10:12:16.691Z,58.92
2023-09-17T10:14:48.100Z,61.78
2023-09-17T10:17:19.759Z,63.69
2023-09-17T10:19:50.433Z,60.34
2023-09-17T10:22:22.116Z,55.39
2023-09-17T10:24:55.226Z,56.62
2023-09-17T10:27:24.610Z,59.82
2023-09-17T10:29:54.568Z,61.26
2023-09-17T10:32:22.869Z,60.99
2023-09-17T10:34:54.247Z,63.37
2023-09-17T10:37:24.904Z,62.11
2023-09-17T10:39:55.568Z,56.60
2023-09-17T10:42:26.329Z,57.14
2023-09-17T10:44:58.841Z,58.48
2023-09-17T10:47:29.900Z,59.69
2023-09-17T10:49:59.214Z,60.62
2023-09-17T10:52:27.740Z,64.31
2023-09-17T10:54:55.696Z,62.28
2023-09-17T10:57:37.217Z,55.64
2023-09-17T11:00:16.737Z,53.57
2023-09-17T11:02:57.534Z,56.87
2023-09-17T11:05:31.200Z,58.16
2023-09-17T11:08:09.942Z,60.14
2023-09-17T11:10:43.590Z,60.24
2023-09-17T11:13:16.396Z,61.82
2023-09-17T11:15:45.471Z,61.83
2023-09-17T11:18:13.610Z,65.89
2023-09-17T11:21:08.468Z,61.60
2023-09-17T11:23:39.803Z,54.68
2023-09-17T11:26:08.355Z,52.72
2023-09-17T11:28:40.197Z,52.30
2023-09-17T11:31:11.665Z,54.95
2023-09-17T11:33:40.421Z,56.28
2023-09-17T11:36:09.639Z,57.21
2023-09-17T11:38:37.703Z,54.55
2023-09-17T11:41:10.369Z,56.54
2023-09-17T11:43:53.821Z,56.22
2023-09-17T11:46:24.800Z,54.80
2023-09-17T11:48:54.336Z,53.79
2023-09-17T11:51:25.693Z,54.53
2023-09-17T11:54:01.561Z,54.93
2023-09-17T11:56:33.482Z,53.36
2023-09-17T11:59:10.786Z,55.18
2023-09-17T12:01:53.701Z,53.28
2023-09-17T12:04:26.688Z,54.61
2023-09-17T12:06:55.646Z,54.15
2023-09-17T12:09:54.357Z,54.30
2023-09-17T12:12:22.543Z,54.51
2023-09-17T12:14:50.770Z,52.58
2023-09-17T12:17:19.126Z,53.62
2023-09-17T12:19:50.555Z,52.49
2023-09-17T12:22:18.713Z,52.23
2023-09-17T12:25:04.615Z,51.35
2023-09-17T12:27:32.535Z,51.19
2023-09-17T12:30:02.446Z,50.83
2023-09-17T12:32:36.109Z,50.44
2023-09-17T12:35:08.061Z,50.33
2023-09-17T12:37:36.273Z,51.34
2023-09-17T12:40:09.169Z,49.92
2023-09-17T12:42:37.307Z,49.77
2023-09-17T12:45:06.440Z,49.12
2023-09-17T12:47:35.041Z,50.27
2023-09-17T12:50:06.016Z,48.68
2023-09-17T12:52:34.991Z,48.11
2023-09-17T12:55:04.531Z,47.14
2023-09-17T12:57:33.156Z,47.84
2023-09-17T13:00:04.765Z,47.86
2023-09-17T13:02:36.622Z,48.79
2023-09-17T13:05:06.424Z,49.09
2023-09-17T13:07:37.632Z,47.80
2023-09-17T13:10:10.277Z,49.27
2023-09-17T13:12:47.089Z,48.56
2023-09-17T13:15:15.063Z,48.73
2023-09-17T13:17:45.573Z,47.61
2023-09-17T13:20:15.539Z,46.97
2023-09-17T13:22:43.919Z,47.69
2023-09-17T13:25:12.101Z,46.81
2023-09-17T13:27:40.422Z,49.42
2023-09-17T13:30:11.048Z,48.56
2023-09-17T13:32:39.021Z,48.19
2023-09-17T13:35:12.253Z,49.34
2023-09-17T13:37:42.030Z,49.43
2023-09-17T13:40:13.933Z,48.62
2023-09-17T13:42:41.920Z,50.01
2023-09-17T13:45:10.620Z,50.42
2023-09-17T13:47:38.558Z,50.31
2023-09-17T13:50:07.793Z,50.93
2023-09-17T13:52:36.337Z,51.01
2023-09-17T13:55:06.940Z,50.73
2023-09-17T13:57:34.894Z,50.93
2023-09-17T14:00:03.953Z,51.10
2023-09-17T14:02:32.495Z,51.44
2023-09-17T14:05:01.931Z,51.81
2023-09-17T14:07:33.688Z,51.96
2023-09-17T14:10:01.640Z,51.62
2023-09-17T14:12:29.700Z,51.75
2023-09-17T14:14:57.591Z,52.08
2023-09-17T14:17:26.954Z,52.96
2023-09-17T14:19:55.122Z,52.42
2023-09-17T14:22:25.447Z,51.48
2023-09-17T14:24:53.632Z,52.52
2023-09-17T14:27:22.141Z,52.91
2023-09-17T14:29:51.104Z,52.75
2023-09-17T14:32:21.187Z,52.03
2023-09-17T14:34:51.232Z,52.45
2023-09-17T14:37:19.330Z,53.00
2023-09-17T14:39:49.478Z,52.62
2023-09-17T14:42:18.657Z,52.26
2023-09-17T14:44:46.762Z,52.82
2023-09-17T14:47:15.269Z,52.78
2023-09-17T14:49:45.774Z,52.28
2023-09-17T14:52:14.957Z,52.08
2023-09-17T14:54:43.761Z,52.52
2023-09-17T14:57:13.303Z,52.04
2023-09-17T14:59:44.032Z,51.55
2023-09-17T15:02:12.435Z,52.30
2023-09-17T15:04:41.671Z,51.85
2023-09-17T15:07:13.448Z,51.49
2023-09-17T15:09:43.095Z,51.72
2023-09-17T15:12:11.691Z,51.01
2023-09-17T15:14:39.996Z,51.10
2023-09-17T15:17:08.685Z,50.82
2023-09-17T15:19:37.399Z,50.43
2023-09-17T15:22:07.597Z,50.31
2023-09-17T15:24:35.881Z,50.50
2023-09-17T15:27:06.561Z,50.26
2023-09-17T15:29:36.118Z,49.11
2023-09-17T15:32:04.581Z,49.86
2023-09-17T15:34:33.081Z,48.40
2023-09-17T15:37:01.794Z,49.66
2023-09-17T15:39:30.046Z,48.55
2023-09-17T15:41:59.508Z,48.78
2023-09-17T15:44:32.869Z,47.23
2023-09-17T15:47:03.540Z,47.83
2023-09-17T15:49:31.581Z,48.71
2023-09-17T15:51:59.940Z,47.90
2023-09-17T15:54:28.209Z,47.80
2023-09-17T15:56:56.200Z,47.80
2023-09-17T15:59:26.366Z,47.31
2023-09-17T16:01:56.455Z,47.42
2023-09-17T16:04:26.586Z,47.40
2023-09-17T16:06:54.818Z,48.38
2023-09-17T16:09:25.327Z,48.28
2023-09-17T16:11:54.692Z,48.57
2023-09-17T16:14:22.923Z,48.67
2023-09-17T16:16:56.009Z,47.59
2023-09-17T16:19:29.292Z,47.49
2023-09-17T16:21:58.280Z,48.19
2023-09-17T16:24:26.791Z,48.80
2023-09-17T16:26:54.788Z,48.92
2023-09-17T16:29:22.793Z,48.84
2023-09-17T16:31:54.683Z,48.67
2023-09-17T16:34:23.459Z,48.94
2023-09-17T16:36:53.351Z,49.34
2023-09-17T16:39:21.902Z,48.84
2023-09-17T16:41:49.835Z,50.23
2023-09-17T16:44:20.263Z,51.07
2023-09-17T16:46:49.720Z,51.57
2023-09-17T16:49:18.652Z,52.52
2023-09-17T16:51:48.251Z,54.41
2023-09-17T16:54:21.122Z,57.52
2023-09-17T16:56:49.108Z,56.94
2023-09-17T16:59:18.902Z,57.22
2023-09-17T17:01:48.195Z,57.69
2023-09-17T17:04:17.522Z,58.40
2023-09-17T17:06:45.449Z,59.30
2023-09-17T17:09:13.946Z,59.13
2023-09-17T17:11:44.434Z,60.39
2023-09-17T17:14:12.350Z,60.54
2023-09-17T17:16:40.550Z,61.46
2023-09-17T17:19:11.738Z,67.39
2023-09-17T17:21:42.491Z,67.71
2023-09-17T17:24:10.472Z,61.36
2023-09-17T17:26:39.217Z,54.58
2023-09-17T17:29:08.677Z,52.86
2023-09-17T17:31:41.670Z,53.93
2023-09-17T17:34:11.424Z,54.38
2023-09-17T17:36:42.787Z,56.51
2023-09-17T17:39:11.690Z,57.76
2023-09-17T17:41:43.778Z,59.25
2023-09-17T17:44:12.242Z,60.13
2023-09-17T17:46:42.654Z,60.69
2023-09-17T17:49:12.653Z,68.18
2023-09-17T17:51:42.435Z,67.84
2023-09-17T17:54:11.317Z,62.84
2023-09-17T17:56:39.536Z,55.99
2023-09-17T17:59:08.066Z,53.81
2023-09-17T18:01:37.690Z,55.09
2023-09-17T18:04:07.112Z,57.34
2023-09-17T18:06:37.050Z,58.61
2023-09-17T18:09:09.454Z,59.68
2023-09-17T18:11:38.652Z,61.66
2023-09-17T18:14:08.605Z,69.07
2023-09-17T18:16:37.197Z,68.57
2023-09-17T18:19:05.233Z,63.67
2023-09-17T18:21:33.095Z,58.35
2023-09-17T18:24:04.072Z,53.45
2023-09-17T18:26:31.924Z,54.28
2023-09-17T18:29:00.926Z,56.15
2023-09-17T18:31:36.494Z,57.88
2023-09-17T18:34:04.986Z,58.97
2023-09-17T18:36:35.678Z,60.72
2023-09-17T18:39:04.265Z,65.66
2023-09-17T18:41:33.161Z,66.93
2023-09-17T18:44:01.403Z,60.84
2023-09-17T18:46:33.739Z,54.67
2023-09-17T18:49:05.930Z,53.98
2023-09-17T18:51:34.384Z,55.98
2023-09-17T18:54:04.385Z,56.91
2023-09-17T18:56:33.066Z,59.05
2023-09-17T18:59:03.577Z,60.57
2023-09-17T19:01:31.859Z,66.54
2023-09-17T19:04:01.295Z,66.47
2023-09-17T19:06:29.323Z,62.68
2023-09-17T19:08:58.537Z,55.15
2023-09-17T19:11:29.112Z,54.32
2023-09-17T19:14:01.826Z,55.39
2023-09-17T19:16:31.184Z,56.50
2023-09-17T19:18:59.424Z,58.07
2023-09-17T19:21:28.135Z,61.57
2023-09-17T19:23:58.571Z,66.43
2023-09-17T19:26:26.566Z,67.16
2023-09-17T19:28:56.000Z,62.25
2023-09-17T19:31:26.282Z,55.91
2023-09-17T19:33:54.419Z,54.48
2023-09-17T19:36:24.414Z,56.19
2023-09-17T19:38:53.936Z,57.89
2023-09-17T19:41:22.211Z,59.71
2023-09-17T19:43:50.939Z,65.29
2023-09-17T19:46:21.183Z,66.29
2023-09-17T19:48:49.415Z,62.19
2023-09-17T19:51:18.780Z,56.62
2023-09-17T19:53:47.017Z,55.78
2023-09-17T19:56:15.411Z,56.07
2023-09-17T19:58:44.496Z,58.21
2023-09-17T20:01:13.619Z,59.63
2023-09-17T20:03:41.937Z,65.99
2023-09-17T20:06:11.578Z,69.01
2023-09-17T20:08:39.684Z,64.67
2023-09-17T20:11:08.175Z,59.97
2023-09-17T20:13:37.119Z,54.89
2023-09-17T20:16:05.171Z,54.26
2023-09-17T20:18:34.053Z,55.47
2023-09-17T20:21:01.908Z,58.41
2023-09-17T20:23:37.266Z,59.21
2023-09-17T20:26:11.240Z,60.00
2023-09-17T20:28:39.329Z,67.19
2023-09-17T20:31:07.625Z,68.18
2023-09-17T20:33:36.775Z,63.70
2023-09-17T20:36:05.141Z,57.04
2023-09-17T20:38:33.418Z,56.13
2023-09-17T20:41:01.885Z,58.05
2023-09-17T20:43:32.534Z,60.77
2023-09-17T20:46:00.807Z,66.80
2023-09-17T20:48:29.333Z,66.95
2023-09-17T20:51:04.503Z,60.80
2023-09-17T20:53:33.598Z,54.57
2023-09-17T20:56:02.891Z,54.39
2023-09-17T20:58:30.899Z,55.82
2023-09-17T21:00:58.988Z,58.51
2023-09-17T21:03:27.332Z,61.59
2023-09-17T21:05:57.117Z,68.22
2023-09-17T21:08:25.805Z,66.75
2023-09-17T21:10:54.040Z,62.16
2023-09-17T21:13:22.422Z,60.84
2023-09-17T21:15:51.504Z,56.22
2023-09-17T21:18:19.386Z,54.71
2023-09-17T21:20:47.856Z,56.54
2023-09-17T21:23:16.558Z,58.15
2023-09-17T21:25:44.648Z,64.91
2023-09-17T21:28:12.660Z,67.81
2023-09-17T21:30:42.892Z,64.33
2023-09-17T21:33:10.948Z,59.85
2023-09-17T21:35:41.194Z,54.76
2023-09-17T21:38:09.718Z,55.77
2023-09-17T21:40:39.865Z,58.33
2023-09-17T21:43:08.056Z,59.11
2023-09-17T21:45:36.611Z,66.87
2023-09-17T21:48:05.052Z,67.91
2023-09-17T21:50:34.640Z,63.72
2023-09-17T21:53:03.184Z,59.84
2023-09-17T21:55:31.373Z,54.77
2023-09-17T21:57:59.370Z,55.10
2023-09-17T22:00:27.234Z,57.35
2023-09-17T22:02:59.213Z,59.88
2023-09-17T22:05:29.651Z,64.88
2023-09-17T22:07:59.437Z,66.13
2023-09-17T22:10:27.281Z,62.15
2023-09-17T22:12:55.179Z,56.68
2023-09-17T22:15:25.909Z,54.79
2023-09-17T22:17:54.722Z,57.03
2023-09-17T22:20:23.609Z,58.25
2023-09-17T22:22:54.350Z,61.37
2023-09-17T22:25:23.687Z,66.72
2023-09-17T22:27:54.558Z,67.83
2023-09-17T22:30:24.968Z,62.86
2023-09-17T22:32:53.041Z,60.48
2023-09-17T22:35:23.675Z,55.22
2023-09-17T22:37:53.950Z,54.63
2023-09-17T22:40:22.172Z,56.43
2023-09-17T22:42:51.017Z,58.62
2023-09-17T22:45:19.139Z,63.37
2023-09-17T22:47:47.336Z,67.55
2023-09-17T22:50:15.335Z,62.54
2023-09-17T22:52:43.531Z,58.83
2023-09-17T22:55:11.773Z,54.46
2023-09-17T22:57:40.359Z,54.98
2023-09-17T23:00:10.142Z,57.50
2023-09-17T23:02:38.094Z,60.11
2023-09-17T23:05:09.620Z,65.02
2023-09-17T23:07:37.689Z,62.69
2023-09-17T23:10:06.482Z,62.53
2023-09-17T23:12:34.434Z,60.04
2023-09-17T23:15:05.098Z,55.22
2023-09-17T23:17:34.199Z,54.31
2023-09-17T23:20:09.437Z,56.77
2023-09-17T23:22:38.057Z,59.78
2023-09-17T23:25:06.404Z,60.42
2023-09-17T23:27:34.429Z,64.87
2023-09-17T23:30:03.985Z,66.43
2023-09-17T23:32:32.096Z,65.98
2023-09-17T23:35:01.181Z,62.24
2023-09-17T23:37:30.701Z,58.13
2023-09-17T23:39:59.957Z,54.99
2023-09-17T23:42:27.936Z,56.45
2023-09-17T23:44:56.566Z,57.86
2023-09-17T23:47:25.594Z,60.12
2023-09-17T23:49:54.735Z,65.63
2023-09-17T23:52:22.855Z,67.50
2023-09-17T23:54:51.543Z,62.90
2023-09-17T23:57:19.688Z,59.35
2023-09-17T23:59:47.989Z,54.87
